Berenda, California
Current Conditions -  °F | °C
As of 10:07 AM on Monday 24 Nov 2014 (Local Time) from KMAE Reporting Station
Haze Haze  
Wind Chill: 47°   Ceiling: 200
Heat Index: 47°   Visibility: 4mi
Dew Point: 46°   Wind: 0mph
Humidity: 97%   Direction: NA
Pressure: 30.43"   Gusts: NA
Location:  36.9046°N, 120.172°W
Report Text: KMAE 241807Z AUTO 00000KT 4SM BR BKN002 08/08 A3043 RMK AO2 CIG 002V005 T00830078
Loading
Personal Weather Stations






























Interactive Weather Map New forecast layout! Learn more

10-Day Weather Forecast

Advertisements
Track Severe Weather on mobile